sensor_id;sensor_type;location;lat;lon;timestamp;pressure;altitude;pressure_sealevel;temperature;humidity
24892;BME280;12954;50.688;10.908;2022-10-28T00:01:21;96326.47;;;15.37;56.96
24892;BME280;12954;50.688;10.908;2022-10-28T00:03:52;96341.81;;;15.28;57.27
24892;BME280;12954;50.688;10.908;2022-10-28T00:06:22;96323.47;;;15.15;57.50
24892;BME280;12954;50.688;10.908;2022-10-28T00:08:51;96273.75;;;14.91;57.52
24892;BME280;12954;50.688;10.908;2022-10-28T00:11:23;96317.50;;;15.37;56.76
24892;BME280;12954;50.688;10.908;2022-10-28T00:13:52;96313.44;;;15.34;56.82
24892;BME280;12954;50.688;10.908;2022-10-28T00:16:22;96318.53;;;15.41;56.46
24892;BME280;12954;50.688;10.908;2022-10-28T00:18:50;96287.47;;;15.23;56.93
24892;BME280;12954;50.688;10.908;2022-10-28T00:21:22;96306.97;;;15.30;56.92
24892;BME280;12954;50.688;10.908;2022-10-28T00:23:50;96319.97;;;15.33;56.67
24892;BME280;12954;50.688;10.908;2022-10-28T00:26:22;96311.31;;;15.31;56.78
24892;BME280;12954;50.688;10.908;2022-10-28T00:28:53;96313.41;;;15.39;56.45
24892;BME280;12954;50.688;10.908;2022-10-28T00:31:25;96296.22;;;15.20;56.75
24892;BME280;12954;50.688;10.908;2022-10-28T00:33:54;96320.16;;;15.42;56.62
24892;BME280;12954;50.688;10.908;2022-10-28T00:36:24;96316.94;;;15.35;56.73
24892;BME280;12954;50.688;10.908;2022-10-28T00:38:54;96292.53;;;15.11;57.19
24892;BME280;12954;50.688;10.908;2022-10-28T00:41:26;96316.16;;;15.34;57.21
24892;BME280;12954;50.688;10.908;2022-10-28T00:43:56;96312.53;;;15.20;57.38
24892;BME280;12954;50.688;10.908;2022-10-28T00:46:28;96310.34;;;15.22;57.30
24892;BME280;12954;50.688;10.908;2022-10-28T00:49:00;96303.34;;;15.16;57.40
24892;BME280;12954;50.688;10.908;2022-10-28T00:51:32;96316.19;;;15.11;57.59
24892;BME280;12954;50.688;10.908;2022-10-28T00:54:01;96302.03;;;14.90;57.82
24892;BME280;12954;50.688;10.908;2022-10-28T00:56:37;96292.19;;;14.94;57.80
24892;BME280;12954;50.688;10.908;2022-10-28T00:59:10;96287.41;;;14.86;57.80
24892;BME280;12954;50.688;10.908;2022-10-28T01:01:40;96304.66;;;15.19;57.25
24892;BME280;12954;50.688;10.908;2022-10-28T01:04:09;96312.47;;;15.25;56.79
24892;BME280;12954;50.688;10.908;2022-10-28T01:06:40;96239.56;;;14.90;56.30
24892;BME280;12954;50.688;10.908;2022-10-28T01:09:08;96311.00;;;15.33;56.37
24892;BME280;12954;50.688;10.908;2022-10-28T01:11:52;96308.19;;;15.19;56.71
24892;BME280;12954;50.688;10.908;2022-10-28T01:14:35;96299.00;;;15.15;56.55
24892;BME280;12954;50.688;10.908;2022-10-28T01:17:24;96310.53;;;15.26;56.32
24892;BME280;12954;50.688;10.908;2022-10-28T01:23:12;96306.34;;;15.15;56.73
24892;BME280;12954;50.688;10.908;2022-10-28T01:25:58;96308.81;;;15.11;56.75
24892;BME280;12954;50.688;10.908;2022-10-28T01:31:36;96315.03;;;15.35;56.16
24892;BME280;12954;50.688;10.908;2022-10-28T01:34:13;96310.34;;;15.22;56.49
24892;BME280;12954;50.688;10.908;2022-10-28T01:36:55;96267.56;;;14.85;56.69
24892;BME280;12954;50.688;10.908;2022-10-28T01:39:30;96312.66;;;15.10;57.16
24892;BME280;12954;50.688;10.908;2022-10-28T01:42:08;96307.38;;;15.19;56.81
24892;BME280;12954;50.688;10.908;2022-10-28T01:44:45;96313.75;;;15.09;57.33
24892;BME280;12954;50.688;10.908;2022-10-28T01:47:20;96295.97;;;14.98;57.25
24892;BME280;12954;50.688;10.908;2022-10-28T01:49:53;96294.06;;;14.98;57.41
24892;BME280;12954;50.688;10.908;2022-10-28T01:52:27;96307.88;;;15.02;57.52
24892;BME280;12954;50.688;10.908;2022-10-28T01:55:01;96273.41;;;14.74;57.54
24892;BME280;12954;50.688;10.908;2022-10-28T01:57:30;96305.78;;;14.94;57.82
24892;BME280;12954;50.688;10.908;2022-10-28T02:00:03;96301.25;;;15.08;57.41
24892;BME280;12954;50.688;10.908;2022-10-28T02:02:35;96284.84;;;14.94;57.31
24892;BME280;12954;50.688;10.908;2022-10-28T02:05:34;96303.59;;;14.96;57.78
24892;BME280;12954;50.688;10.908;2022-10-28T02:07:58;96298.59;;;15.03;57.57
24892;BME280;12954;50.688;10.908;2022-10-28T02:10:34;96264.59;;;14.87;57.53
24892;BME280;12954;50.688;10.908;2022-10-28T02:13:07;96281.22;;;15.04;57.52
24892;BME280;12954;50.688;10.908;2022-10-28T02:15:42;96287.75;;;15.03;57.70
24892;BME280;12954;50.688;10.908;2022-10-28T02:18:22;96281.13;;;15.09;57.35
24892;BME280;12954;50.688;10.908;2022-10-28T02:20:58;96289.47;;;14.94;57.85
24892;BME280;12954;50.688;10.908;2022-10-28T02:23:40;96214.63;;;14.35;57.72
24892;BME280;12954;50.688;10.908;2022-10-28T02:26:14;96281.50;;;15.02;57.60
24892;BME280;12954;50.688;10.908;2022-10-28T02:28:52;96267.88;;;14.84;57.73
24892;BME280;12954;50.688;10.908;2022-10-28T02:31:24;96288.78;;;15.07;57.41
24892;BME280;12954;50.688;10.908;2022-10-28T02:33:59;96290.28;;;14.94;57.83
24892;BME280;12954;50.688;10.908;2022-10-28T02:36:31;96209.09;;;14.45;57.56
24892;BME280;12954;50.688;10.908;2022-10-28T02:39:01;96289.03;;;14.87;57.88
24892;BME280;12954;50.688;10.908;2022-10-28T02:41:35;96295.44;;;14.96;57.72
24892;BME280;12954;50.688;10.908;2022-10-28T02:44:09;96236.69;;;14.58;57.76
24892;BME280;12954;50.688;10.908;2022-10-28T02:46:40;96289.44;;;14.99;57.45
24892;BME280;12954;50.688;10.908;2022-10-28T02:49:12;96298.94;;;14.96;57.54
24892;BME280;12954;50.688;10.908;2022-10-28T02:51:44;96255.38;;;14.83;57.43
24892;BME280;12954;50.688;10.908;2022-10-28T02:54:15;96240.91;;;14.69;57.49
24892;BME280;12954;50.688;10.908;2022-10-28T02:56:49;96284.94;;;15.08;57.25
24892;BME280;12954;50.688;10.908;2022-10-28T02:59:18;96230.72;;;14.56;57.72
24892;BME280;12954;50.688;10.908;2022-10-28T03:01:47;96262.13;;;14.85;57.82
24892;BME280;12954;50.688;10.908;2022-10-28T03:04:17;96283.78;;;14.95;57.76
24892;BME280;12954;50.688;10.908;2022-10-28T03:06:46;96213.56;;;14.60;57.61
24892;BME280;12954;50.688;10.908;2022-10-28T03:09:14;96273.50;;;15.11;57.06
24892;BME280;12954;50.688;10.908;2022-10-28T03:11:43;96267.47;;;15.14;56.89
24892;BME280;12954;50.688;10.908;2022-10-28T03:14:11;96237.81;;;14.99;57.09
24892;BME280;12954;50.688;10.908;2022-10-28T03:16:41;96256.44;;;15.06;57.24
24892;BME280;12954;50.688;10.908;2022-10-28T03:19:09;96253.97;;;15.09;56.71
24892;BME280;12954;50.688;10.908;2022-10-28T03:21:39;96244.25;;;15.03;56.86
24892;BME280;12954;50.688;10.908;2022-10-28T03:24:08;96215.97;;;14.85;57.37
24892;BME280;12954;50.688;10.908;2022-10-28T03:26:36;96200.41;;;14.91;56.59
24892;BME280;12954;50.688;10.908;2022-10-28T03:29:05;96257.88;;;15.22;56.74
24892;BME280;12954;50.688;10.908;2022-10-28T03:31:33;96195.03;;;14.86;56.94
24892;BME280;12954;50.688;10.908;2022-10-28T03:34:02;96254.41;;;15.16;57.03
24892;BME280;12954;50.688;10.908;2022-10-28T03:36:30;96246.84;;;15.13;57.27
24892;BME280;12954;50.688;10.908;2022-10-28T03:39:00;96231.84;;;14.97;57.30
24892;BME280;12954;50.688;10.908;2022-10-28T03:41:29;96256.16;;;15.07;57.34
24892;BME280;12954;50.688;10.908;2022-10-28T03:43:58;96156.03;;;14.34;57.33
24892;BME280;12954;50.688;10.908;2022-10-28T03:46:26;96167.09;;;14.38;57.54
24892;BME280;12954;50.688;10.908;2022-10-28T03:48:59;96229.19;;;14.92;57.12
24892;BME280;12954;50.688;10.908;2022-10-28T03:51:27;96244.84;;;15.00;57.00
24892;BME280;12954;50.688;10.908;2022-10-28T03:53:56;96255.50;;;15.15;56.61
24892;BME280;12954;50.688;10.908;2022-10-28T03:56:25;96237.34;;;14.92;56.92
24892;BME280;12954;50.688;10.908;2022-10-28T03:58:54;96256.53;;;15.00;57.19
24892;BME280;12954;50.688;10.908;2022-10-28T04:01:22;96262.00;;;15.19;56.58
24892;BME280;12954;50.688;10.908;2022-10-28T04:03:51;96258.81;;;15.12;56.76
24892;BME280;12954;50.688;10.908;2022-10-28T04:06:20;96240.38;;;15.09;56.12
24892;BME280;12954;50.688;10.908;2022-10-28T04:08:48;96251.75;;;15.11;56.08
24892;BME280;12954;50.688;10.908;2022-10-28T04:11:17;96261.63;;;15.26;56.27
24892;BME280;12954;50.688;10.908;2022-10-28T04:13:47;96269.63;;;15.36;55.64
24892;BME280;12954;50.688;10.908;2022-10-28T04:16:15;96260.41;;;15.37;55.52
24892;BME280;12954;50.688;10.908;2022-10-28T04:18:44;96280.25;;;15.37;55.87
24892;BME280;12954;50.688;10.908;2022-10-28T04:21:12;96285.72;;;15.32;56.28
24892;BME280;12954;50.688;10.908;2022-10-28T04:23:40;96274.25;;;15.35;56.66
24892;BME280;12954;50.688;10.908;2022-10-28T04:26:09;96264.72;;;15.19;57.19
24892;BME280;12954;50.688;10.908;2022-10-28T04:28:38;96282.34;;;15.22;57.14
24892;BME280;12954;50.688;10.908;2022-10-28T04:31:08;96288.88;;;15.21;57.05
24892;BME280;12954;50.688;10.908;2022-10-28T04:33:38;96220.78;;;14.70;57.29
24892;BME280;12954;50.688;10.908;2022-10-28T04:36:06;96280.44;;;15.22;56.80
24892;BME280;12954;50.688;10.908;2022-10-28T04:38:35;96288.13;;;15.15;57.21
24892;BME280;12954;50.688;10.908;2022-10-28T04:41:03;96281.66;;;15.11;57.25
24892;BME280;12954;50.688;10.908;2022-10-28T04:43:32;96287.91;;;15.12;57.08
24892;BME280;12954;50.688;10.908;2022-10-28T04:46:00;96264.41;;;15.02;56.87
24892;BME280;12954;50.688;10.908;2022-10-28T04:48:33;96279.31;;;15.23;56.75
24892;BME280;12954;50.688;10.908;2022-10-28T04:51:02;96264.69;;;15.00;56.99
24892;BME280;12954;50.688;10.908;2022-10-28T04:53:30;96279.47;;;15.32;56.48
24892;BME280;12954;50.688;10.908;2022-10-28T04:55:59;96280.88;;;15.29;56.41
24892;BME280;12954;50.688;10.908;2022-10-28T04:58:27;96281.59;;;15.35;56.19
24892;BME280;12954;50.688;10.908;2022-10-28T05:00:56;96287.53;;;15.42;56.12
24892;BME280;12954;50.688;10.908;2022-10-28T05:03:24;96295.38;;;15.43;56.10
24892;BME280;12954;50.688;10.908;2022-10-28T05:05:54;96297.09;;;15.39;56.31
24892;BME280;12954;50.688;10.908;2022-10-28T05:08:23;95957.25;;;13.34;56.25
24892;BME280;12954;50.688;10.908;2022-10-28T05:10:51;96291.13;;;15.37;56.33
24892;BME280;12954;50.688;10.908;2022-10-28T05:13:19;96286.22;;;15.39;56.20
24892;BME280;12954;50.688;10.908;2022-10-28T05:15:48;96258.81;;;15.12;56.37
24892;BME280;12954;50.688;10.908;2022-10-28T05:18:17;96295.03;;;15.50;55.76
24892;BME280;12954;50.688;10.908;2022-10-28T05:20:45;96300.19;;;15.51;55.74
24892;BME280;12954;50.688;10.908;2022-10-28T05:23:20;96305.81;;;15.55;55.57
24892;BME280;12954;50.688;10.908;2022-10-28T05:25:55;96292.41;;;15.64;55.31
24892;BME280;12954;50.688;10.908;2022-10-28T05:28:23;96295.25;;;15.53;55.64
24892;BME280;12954;50.688;10.908;2022-10-28T05:30:52;96297.50;;;15.46;55.85
24892;BME280;12954;50.688;10.908;2022-10-28T05:33:21;96303.88;;;15.61;55.68
24892;BME280;12954;50.688;10.908;2022-10-28T05:35:49;96294.94;;;15.36;56.31
24892;BME280;12954;50.688;10.908;2022-10-28T05:38:19;96294.53;;;15.48;55.99
24892;BME280;12954;50.688;10.908;2022-10-28T05:40:48;96282.84;;;15.47;55.89
24892;BME280;12954;50.688;10.908;2022-10-28T05:43:16;96288.53;;;15.27;56.72
24892;BME280;12954;50.688;10.908;2022-10-28T05:45:51;96285.72;;;15.32;56.39
24892;BME280;12954;50.688;10.908;2022-10-28T05:48:19;96300.13;;;15.33;56.41
24892;BME280;12954;50.688;10.908;2022-10-28T05:50:48;96251.41;;;14.99;56.48
24892;BME280;12954;50.688;10.908;2022-10-28T05:53:17;96296.50;;;15.42;56.18
24892;BME280;12954;50.688;10.908;2022-10-28T05:55:47;96292.91;;;15.23;56.59
24892;BME280;12954;50.688;10.908;2022-10-28T05:58:15;96277.25;;;15.15;56.43
24892;BME280;12954;50.688;10.908;2022-10-28T06:00:44;96303.66;;;15.33;56.44
24892;BME280;12954;50.688;10.908;2022-10-28T06:03:12;96296.78;;;15.41;56.01
24892;BME280;12954;50.688;10.908;2022-10-28T06:05:43;96296.78;;;15.41;55.97
24892;BME280;12954;50.688;10.908;2022-10-28T06:08:12;96302.25;;;15.60;55.42
24892;BME280;12954;50.688;10.908;2022-10-28T06:10:50;96285.91;;;15.41;55.62
24892;BME280;12954;50.688;10.908;2022-10-28T06:13:23;96309.44;;;15.50;55.59
24892;BME280;12954;50.688;10.908;2022-10-28T06:15:52;96308.25;;;15.56;55.05
24892;BME280;12954;50.688;10.908;2022-10-28T06:18:21;96303.53;;;15.43;55.69
24892;BME280;12954;50.688;10.908;2022-10-28T06:20:53;96302.59;;;15.53;55.64
24892;BME280;12954;50.688;10.908;2022-10-28T06:23:23;96306.56;;;15.42;56.08
24892;BME280;12954;50.688;10.908;2022-10-28T06:25:57;96301.41;;;15.40;56.21
24892;BME280;12954;50.688;10.908;2022-10-28T06:28:26;96283.16;;;15.22;56.06
24892;BME280;12954;50.688;10.908;2022-10-28T06:31:00;96302.97;;;15.46;55.93
24892;BME280;12954;50.688;10.908;2022-10-28T06:33:29;96301.75;;;15.34;56.37
24892;BME280;12954;50.688;10.908;2022-10-28T06:35:59;96276.75;;;15.13;56.01
24892;BME280;12954;50.688;10.908;2022-10-28T06:38:28;96291.81;;;15.24;55.95
24892;BME280;12954;50.688;10.908;2022-10-28T06:40:58;96306.78;;;15.45;55.61
24892;BME280;12954;50.688;10.908;2022-10-28T06:43:27;96302.38;;;15.49;55.54
24892;BME280;12954;50.688;10.908;2022-10-28T06:45:55;96314.66;;;15.47;55.66
24892;BME280;12954;50.688;10.908;2022-10-28T06:48:28;96287.03;;;15.40;55.54
24892;BME280;12954;50.688;10.908;2022-10-28T06:50:57;96305.59;;;15.70;55.02
24892;BME280;12954;50.688;10.908;2022-10-28T06:53:25;96298.19;;;15.76;54.63
24892;BME280;12954;50.688;10.908;2022-10-28T06:55:54;96293.31;;;15.73;54.78
24892;BME280;12954;50.688;10.908;2022-10-28T06:58:25;96304.56;;;15.85;54.46
24892;BME280;12954;50.688;10.908;2022-10-28T07:00:54;96289.38;;;15.84;54.28
24892;BME280;12954;50.688;10.908;2022-10-28T07:03:23;96280.41;;;15.83;54.29
24892;BME280;12954;50.688;10.908;2022-10-28T07:05:51;96270.38;;;15.79;54.10
24892;BME280;12954;50.688;10.908;2022-10-28T07:08:20;96257.31;;;15.81;53.79
24892;BME280;12954;50.688;10.908;2022-10-28T07:10:54;96187.25;;;15.35;53.84
24892;BME280;12954;50.688;10.908;2022-10-28T07:13:25;96251.50;;;15.69;54.10
24892;BME280;12954;50.688;10.908;2022-10-28T07:15:55;96189.69;;;15.55;53.51
24892;BME280;12954;50.688;10.908;2022-10-28T07:18:25;96260.53;;;15.83;53.75
24892;BME280;12954;50.688;10.908;2022-10-28T07:20:57;96262.66;;;15.86;53.85
24892;BME280;12954;50.688;10.908;2022-10-28T07:23:25;96256.28;;;15.77;54.08
24892;BME280;12954;50.688;10.908;2022-10-28T07:25:55;96208.69;;;15.42;53.94
24892;BME280;12954;50.688;10.908;2022-10-28T07:28:25;96253.47;;;15.82;53.88
24892;BME280;12954;50.688;10.908;2022-10-28T07:30:59;96258.84;;;15.87;53.72
24892;BME280;12954;50.688;10.908;2022-10-28T07:33:27;96266.31;;;15.95;53.22
24892;BME280;12954;50.688;10.908;2022-10-28T07:35:56;96256.03;;;15.92;53.23
24892;BME280;12954;50.688;10.908;2022-10-28T07:38:24;96226.34;;;15.77;53.13
24892;BME280;12954;50.688;10.908;2022-10-28T07:40:52;96234.25;;;15.92;52.94
24892;BME280;12954;50.688;10.908;2022-10-28T07:43:21;96270.41;;;16.11;52.71
24892;BME280;12954;50.688;10.908;2022-10-28T07:45:56;96267.06;;;16.14;52.51
24892;BME280;12954;50.688;10.908;2022-10-28T07:48:24;96274.47;;;16.13;52.54
24892;BME280;12954;50.688;10.908;2022-10-28T07:50:53;96263.03;;;16.30;51.58
24892;BME280;12954;50.688;10.908;2022-10-28T07:53:21;96260.31;;;16.30;51.78
24892;BME280;12954;50.688;10.908;2022-10-28T07:55:55;96224.59;;;15.99;51.95
24892;BME280;12954;50.688;10.908;2022-10-28T07:58:24;96247.84;;;16.10;52.20
24892;BME280;12954;50.688;10.908;2022-10-28T08:00:53;96269.09;;;16.41;51.58
24892;BME280;12954;50.688;10.908;2022-10-28T08:03:23;96268.09;;;16.37;52.13
24892;BME280;12954;50.688;10.908;2022-10-28T08:06:06;96250.00;;;16.27;52.16
24892;BME280;12954;50.688;10.908;2022-10-28T08:08:35;96263.25;;;16.47;51.82
24892;BME280;12954;50.688;10.908;2022-10-28T08:11:08;96161.72;;;16.01;51.12
24892;BME280;12954;50.688;10.908;2022-10-28T08:13:37;96123.16;;;15.67;51.30
24892;BME280;12954;50.688;10.908;2022-10-28T08:16:06;96230.69;;;16.42;51.65
24892;BME280;12954;50.688;10.908;2022-10-28T08:18:37;96250.78;;;16.60;52.08
24892;BME280;12954;50.688;10.908;2022-10-28T08:21:08;96241.38;;;16.52;52.12
24892;BME280;12954;50.688;10.908;2022-10-28T08:23:37;96241.28;;;16.57;52.49
24892;BME280;12954;50.688;10.908;2022-10-28T08:26:05;96238.25;;;16.59;52.69
24892;BME280;12954;50.688;10.908;2022-10-28T08:28:33;96248.34;;;16.58;52.47
24892;BME280;12954;50.688;10.908;2022-10-28T08:31:03;96243.09;;;16.62;52.97
24892;BME280;12954;50.688;10.908;2022-10-28T08:33:38;96220.59;;;16.56;53.00
24892;BME280;12954;50.688;10.908;2022-10-28T08:36:09;96231.81;;;16.68;51.81
24892;BME280;12954;50.688;10.908;2022-10-28T08:38:37;96243.19;;;16.71;51.66
24892;BME280;12954;50.688;10.908;2022-10-28T08:41:23;96209.59;;;16.61;51.30
24892;BME280;12954;50.688;10.908;2022-10-28T08:44:02;96236.13;;;16.83;50.78
24892;BME280;12954;50.688;10.908;2022-10-28T08:46:46;96223.81;;;16.86;50.79
24892;BME280;12954;50.688;10.908;2022-10-28T08:49:19;96229.44;;;17.03;49.68
24892;BME280;12954;50.688;10.908;2022-10-28T08:51:52;96084.00;;;16.22;49.40
24892;BME280;12954;50.688;10.908;2022-10-28T08:54:26;96228.53;;;17.21;48.82
24892;BME280;12954;50.688;10.908;2022-10-28T08:56:59;96228.22;;;17.22;49.24
24892;BME280;12954;50.688;10.908;2022-10-28T08:59:31;96239.88;;;17.28;49.29
24892;BME280;12954;50.688;10.908;2022-10-28T09:02:07;96222.88;;;17.17;48.74
24892;BME280;12954;50.688;10.908;2022-10-28T09:04:41;96214.41;;;17.19;48.98
24892;BME280;12954;50.688;10.908;2022-10-28T09:07:14;96204.81;;;17.08;48.84
24892;BME280;12954;50.688;10.908;2022-10-28T09:09:44;96237.31;;;17.32;48.84
24892;BME280;12954;50.688;10.908;2022-10-28T09:12:22;96237.22;;;17.37;48.86
24892;BME280;12954;50.688;10.908;2022-10-28T09:15:06;96244.66;;;17.45;48.64
24892;BME280;12954;50.688;10.908;2022-10-28T09:17:50;96242.13;;;17.48;48.25
24892;BME280;12954;50.688;10.908;2022-10-28T09:20:28;96233.50;;;17.55;47.83
24892;BME280;12954;50.688;10.908;2022-10-28T09:23:05;96240.16;;;17.62;48.08
24892;BME280;12954;50.688;10.908;2022-10-28T09:25:41;96243.38;;;17.64;48.29
24892;BME280;12954;50.688;10.908;2022-10-28T09:28:24;96215.91;;;17.61;48.22
24892;BME280;12954;50.688;10.908;2022-10-28T09:31:01;96239.28;;;17.75;48.42
24892;BME280;12954;50.688;10.908;2022-10-28T09:33:53;96238.03;;;17.82;48.11
24892;BME280;12954;50.688;10.908;2022-10-28T09:36:29;96238.25;;;17.85;47.84
24892;BME280;12954;50.688;10.908;2022-10-28T09:39:00;96243.13;;;17.88;48.30
24892;BME280;12954;50.688;10.908;2022-10-28T09:41:33;96243.16;;;17.97;47.67
24892;BME280;12954;50.688;10.908;2022-10-28T09:44:07;96235.97;;;18.01;47.59
24892;BME280;12954;50.688;10.908;2022-10-28T09:46:41;96237.78;;;18.05;47.84
24892;BME280;12954;50.688;10.908;2022-10-28T09:49:13;96242.78;;;18.12;47.50
24892;BME280;12954;50.688;10.908;2022-10-28T09:51:49;96223.31;;;18.05;47.66
24892;BME280;12954;50.688;10.908;2022-10-28T09:54:27;96243.66;;;18.21;47.57
24892;BME280;12954;50.688;10.908;2022-10-28T09:56:58;96243.03;;;18.24;47.92
24892;BME280;12954;50.688;10.908;2022-10-28T09:59:26;96245.97;;;18.27;47.87
24892;BME280;12954;50.688;10.908;2022-10-28T10:01:55;96169.09;;;17.90;47.57
24892;BME280;12954;50.688;10.908;2022-10-28T10:04:25;96239.78;;;18.44;47.55
24892;BME280;12954;50.688;10.908;2022-10-28T10:07:02;96237.53;;;18.46;47.52
24892;BME280;12954;50.688;10.908;2022-10-28T10:09:34;96168.22;;;18.03;47.70
24892;BME280;12954;50.688;10.908;2022-10-28T10:12:06;96237.00;;;18.66;47.54
24892;BME280;12954;50.688;10.908;2022-10-28T10:14:37;96240.91;;;18.74;47.58
24892;BME280;12954;50.688;10.908;2022-10-28T10:17:11;96181.13;;;18.50;47.32
24892;BME280;12954;50.688;10.908;2022-10-28T10:19:58;96232.97;;;19.03;46.76
24892;BME280;12954;50.688;10.908;2022-10-28T10:22:30;96214.94;;;19.02;46.54
24892;BME280;12954;50.688;10.908;2022-10-28T10:24:58;96208.34;;;19.12;46.14
24892;BME280;12954;50.688;10.908;2022-10-28T10:27:28;96240.63;;;19.40;46.12
24892;BME280;12954;50.688;10.908;2022-10-28T10:29:58;96239.84;;;19.57;45.71
24892;BME280;12954;50.688;10.908;2022-10-28T10:32:27;96240.50;;;19.71;45.33
24892;BME280;12954;50.688;10.908;2022-10-28T10:35:03;96232.91;;;19.85;45.37
24892;BME280;12954;50.688;10.908;2022-10-28T10:37:35;96241.44;;;20.01;45.28
24892;BME280;12954;50.688;10.908;2022-10-28T10:40:16;96229.22;;;20.16;44.58
24892;BME280;12954;50.688;10.908;2022-10-28T10:42:46;96188.28;;;19.93;43.68
24892;BME280;12954;50.688;10.908;2022-10-28T10:45:35;96226.44;;;20.33;43.54
24892;BME280;12954;50.688;10.908;2022-10-28T10:48:11;96241.03;;;20.45;43.02
24892;BME280;12954;50.688;10.908;2022-10-28T10:50:41;96222.16;;;20.52;42.56
24892;BME280;12954;50.688;10.908;2022-10-28T10:53:23;96235.03;;;20.61;42.69
24892;BME280;12954;50.688;10.908;2022-10-28T10:55:56;96229.19;;;20.71;42.43
24892;BME280;12954;50.688;10.908;2022-10-28T10:58:26;96240.31;;;20.74;42.59
24892;BME280;12954;50.688;10.908;2022-10-28T11:00:58;96246.06;;;20.90;42.44
24892;BME280;12954;50.688;10.908;2022-10-28T11:03:30;96250.84;;;21.01;42.46
24892;BME280;12954;50.688;10.908;2022-10-28T11:06:04;96256.94;;;21.16;41.92
24892;BME280;12954;50.688;10.908;2022-10-28T11:08:56;96247.84;;;21.24;41.68
24892;BME280;12954;50.688;10.908;2022-10-28T11:11:33;96258.03;;;21.23;41.41
24892;BME280;12954;50.688;10.908;2022-10-28T11:14:04;96249.84;;;21.15;41.53
24892;BME280;12954;50.688;10.908;2022-10-28T11:16:46;96224.56;;;21.00;41.34
24892;BME280;12954;50.688;10.908;2022-10-28T11:19:19;96238.06;;;21.14;41.76
24892;BME280;12954;50.688;10.908;2022-10-28T11:24:49;96261.28;;;21.17;41.77
24892;BME280;12954;50.688;10.908;2022-10-28T11:27:32;96251.41;;;21.24;42.11
24892;BME280;12954;50.688;10.908;2022-10-28T11:30:02;96250.41;;;21.29;41.58
24892;BME280;12954;50.688;10.908;2022-10-28T11:32:42;96230.19;;;21.33;41.43
24892;BME280;12954;50.688;10.908;2022-10-28T11:35:42;96226.56;;;21.21;41.28
24892;BME280;12954;50.688;10.908;2022-10-28T11:38:25;96240.63;;;21.40;41.28
24892;BME280;12954;50.688;10.908;2022-10-28T11:41:10;96226.16;;;21.31;40.35
24892;BME280;12954;50.688;10.908;2022-10-28T11:43:47;96247.75;;;21.41;40.94
24892;BME280;12954;50.688;10.908;2022-10-28T11:46:31;96225.63;;;21.37;41.12
24892;BME280;12954;50.688;10.908;2022-10-28T11:49:25;96233.66;;;21.42;40.57
24892;BME280;12954;50.688;10.908;2022-10-28T11:52:04;96234.34;;;21.39;40.73
24892;BME280;12954;50.688;10.908;2022-10-28T11:54:48;96206.47;;;21.29;40.87
24892;BME280;12954;50.688;10.908;2022-10-28T11:57:40;96207.16;;;21.26;40.90
24892;BME280;12954;50.688;10.908;2022-10-28T12:00:24;96196.97;;;21.26;40.53
24892;BME280;12954;50.688;10.908;2022-10-28T12:03:03;96199.94;;;21.42;40.32
24892;BME280;12954;50.688;10.908;2022-10-28T12:05:44;96210.50;;;21.31;40.78
24892;BME280;12954;50.688;10.908;2022-10-28T12:08:24;96226.34;;;21.55;40.76
24892;BME280;12954;50.688;10.908;2022-10-28T12:11:07;96201.94;;;21.33;40.65
24892;BME280;12954;50.688;10.908;2022-10-28T12:13:44;96231.59;;;21.48;40.86
24892;BME280;12954;50.688;10.908;2022-10-28T12:16:20;96232.03;;;21.50;40.77
24892;BME280;12954;50.688;10.908;2022-10-28T12:18:55;96220.59;;;21.48;40.89
24892;BME280;12954;50.688;10.908;2022-10-28T12:21:30;96218.50;;;21.45;40.71
24892;BME280;12954;50.688;10.908;2022-10-28T12:24:03;96187.13;;;21.25;40.40
24892;BME280;12954;50.688;10.908;2022-10-28T12:26:36;96209.31;;;21.41;40.04
24892;BME280;12954;50.688;10.908;2022-10-28T12:29:15;96212.91;;;21.33;39.59
24892;BME280;12954;50.688;10.908;2022-10-28T12:31:47;96187.38;;;21.12;40.09
24892;BME280;12954;50.688;10.908;2022-10-28T12:34:21;96199.78;;;21.18;39.97
24892;BME280;12954;50.688;10.908;2022-10-28T12:36:57;96196.44;;;21.12;40.10
24892;BME280;12954;50.688;10.908;2022-10-28T12:39:32;96208.66;;;21.15;39.89
24892;BME280;12954;50.688;10.908;2022-10-28T12:42:04;96206.44;;;21.08;40.14
24892;BME280;12954;50.688;10.908;2022-10-28T12:44:39;96209.03;;;21.04;39.98
24892;BME280;12954;50.688;10.908;2022-10-28T12:47:17;96205.16;;;21.05;39.96
24892;BME280;12954;50.688;10.908;2022-10-28T12:49:59;96202.63;;;21.00;39.98
24892;BME280;12954;50.688;10.908;2022-10-28T12:52:35;96197.31;;;20.95;40.07
24892;BME280;12954;50.688;10.908;2022-10-28T12:55:15;96186.53;;;20.90;40.10
24892;BME280;12954;50.688;10.908;2022-10-28T12:57:50;96150.66;;;20.66;40.04
24892;BME280;12954;50.688;10.908;2022-10-28T13:00:25;96162.13;;;20.68;40.44
24892;BME280;12954;50.688;10.908;2022-10-28T13:02:59;96194.09;;;20.93;40.30
24892;BME280;12954;50.688;10.908;2022-10-28T13:05:33;96200.25;;;20.90;40.06
24892;BME280;12954;50.688;10.908;2022-10-28T13:14:47;96165.38;;;20.62;40.30
24892;BME280;12954;50.688;10.908;2022-10-28T13:17:36;96178.25;;;20.61;40.51
24892;BME280;12954;50.688;10.908;2022-10-28T13:20:14;96183.56;;;20.66;40.59
24892;BME280;12954;50.688;10.908;2022-10-28T13:22:50;96098.34;;;19.95;40.87
24892;BME280;12954;50.688;10.908;2022-10-28T13:25:42;96187.81;;;20.55;40.88
24892;BME280;12954;50.688;10.908;2022-10-28T13:28:18;96178.97;;;20.49;40.94
24892;BME280;12954;50.688;10.908;2022-10-28T13:30:52;96082.44;;;19.89;40.78
24892;BME280;12954;50.688;10.908;2022-10-28T13:33:23;96188.84;;;20.42;40.68
24892;BME280;12954;50.688;10.908;2022-10-28T13:35:53;96139.25;;;20.09;40.84